createdAt,value
2022-10-25T00:02:37.485Z,100808.59
2022-10-25T00:05:42.532Z,100814.94
2022-10-25T00:08:45.268Z,100811.09
2022-10-25T00:11:48.057Z,100808.34
2022-10-25T00:14:50.703Z,100818.78
2022-10-25T00:17:54.874Z,100810.78
2022-10-25T00:20:58.764Z,100818.25
2022-10-25T00:24:01.398Z,100819.06
2022-10-25T00:27:04.153Z,100816.28
2022-10-25T00:30:08.637Z,100812.44
2022-10-25T00:33:12.742Z,100817.97
2022-10-25T00:36:17.826Z,100814.66
2022-10-25T00:39:20.447Z,100811.91
2022-10-25T00:42:25.875Z,100814.91
2022-10-25T00:45:29.536Z,100810.78
2022-10-25T00:48:34.422Z,100811.06
2022-10-25T00:51:40.871Z,100810.81
2022-10-25T00:54:48.500Z,100814.13
2022-10-25T00:57:57.856Z,100809.72
2022-10-25T01:01:00.613Z,100818.22
2022-10-25T01:04:09.515Z,100820.16
2022-10-25T01:07:12.838Z,100817.13
2022-10-25T01:10:16.238Z,100813.28
2022-10-25T01:13:19.531Z,100816.84
2022-10-25T01:16:29.353Z,100815.22
2022-10-25T01:19:52.312Z,100813.00
2022-10-25T01:23:04.300Z,100807.22
2022-10-25T01:26:33.069Z,100807.22
2022-10-25T01:30:00.622Z,100811.63
2022-10-25T01:33:17.886Z,100808.31
2022-10-25T01:36:30.460Z,100810.78
2022-10-25T01:39:37.660Z,100809.69
2022-10-25T01:42:50.110Z,100818.78
2022-10-25T01:46:01.709Z,100812.19
2022-10-25T01:49:10.077Z,100816.31
2022-10-25T01:52:12.897Z,100813.00
2022-10-25T01:55:16.640Z,100817.13
2022-10-25T01:58:31.684Z,100814.94
2022-10-25T02:01:42.511Z,100814.91
2022-10-25T02:04:54.820Z,100809.66
2022-10-25T02:08:05.988Z,100807.19
2022-10-25T02:11:20.089Z,100814.06
2022-10-25T02:14:28.450Z,100815.19
2022-10-25T02:17:34.769Z,100817.94
2022-10-25T02:20:41.818Z,100819.06
2022-10-25T02:23:50.144Z,100821.78
2022-10-25T02:26:54.365Z,100821.50
2022-10-25T02:29:58.017Z,100822.03
2022-10-25T02:33:00.709Z,100825.63
2022-10-25T02:36:09.362Z,100821.75
2022-10-25T02:39:12.076Z,100827.25
2022-10-25T02:42:14.701Z,100819.25
2022-10-25T02:45:17.453Z,100825.34
2022-10-25T02:48:20.108Z,100820.94
2022-10-25T02:51:24.610Z,100830.84
2022-10-25T02:54:27.243Z,100830.84
2022-10-25T02:57:34.083Z,100830.03
2022-10-25T03:00:36.728Z,100829.19
2022-10-25T03:03:39.717Z,100836.38
2022-10-25T03:06:43.705Z,100832.50
2022-10-25T03:09:46.478Z,100837.19
2022-10-25T03:12:49.347Z,100833.59
2022-10-25T03:15:52.198Z,100836.09
2022-10-25T03:18:57.907Z,100843.25
2022-10-25T03:22:02.081Z,100841.88
2022-10-25T03:25:05.321Z,100844.94
2022-10-25T03:28:08.281Z,100846.59
2022-10-25T03:31:12.617Z,100843.81
2022-10-25T03:34:15.258Z,100854.88
2022-10-25T03:37:19.231Z,100848.53
2022-10-25T03:40:23.357Z,100847.41
2022-10-25T03:43:26.069Z,100845.16
2022-10-25T03:46:28.843Z,100857.06
2022-10-25T03:49:31.650Z,100849.59
2022-10-25T03:52:35.872Z,100865.63
2022-10-25T03:55:38.788Z,100859.59
2022-10-25T03:58:41.632Z,100862.31
2022-10-25T04:01:44.583Z,100871.69
2022-10-25T04:04:47.621Z,100870.31
2022-10-25T04:07:51.740Z,100873.91
2022-10-25T04:10:54.377Z,100885.78
2022-10-25T04:14:07.942Z,100886.03
2022-10-25T04:17:26.045Z,100882.44
2022-10-25T04:20:28.673Z,100882.16
2022-10-25T04:23:32.814Z,100878.88
2022-10-25T04:26:36.911Z,100868.94
2022-10-25T04:29:39.748Z,100879.41
2022-10-25T04:32:42.370Z,100874.44
2022-10-25T04:35:45.590Z,100872.78
2022-10-25T04:38:50.207Z,100882.22
2022-10-25T04:41:53.314Z,100878.91
2022-10-25T04:44:55.929Z,100881.13
2022-10-25T04:47:58.792Z,100882.50
2022-10-25T04:51:01.814Z,100884.72
2022-10-25T04:54:05.901Z,100886.94
2022-10-25T04:57:08.636Z,100877.53
2022-10-25T05:00:12.541Z,100875.59
2022-10-25T05:03:15.298Z,100881.97
2022-10-25T05:06:19.953Z,100879.75
2022-10-25T05:09:24.350Z,100880.28
2022-10-25T05:12:27.039Z,100883.06
2022-10-25T05:15:29.822Z,100884.16
2022-10-25T05:18:33.233Z,100886.09
2022-10-25T05:21:35.882Z,100890.53
2022-10-25T05:24:40.002Z,100884.44
2022-10-25T05:27:42.705Z,100886.38
2022-10-25T05:30:45.540Z,100891.63
2022-10-25T05:33:51.426Z,100893.84
2022-10-25T05:36:54.095Z,100899.34
2022-10-25T05:39:58.305Z,100902.09
2022-10-25T05:43:01.151Z,100904.59
2022-10-25T05:46:06.258Z,100909.84
2022-10-25T05:49:09.212Z,100917.56
2022-10-25T05:52:12.335Z,100915.34
2022-10-25T05:55:16.580Z,100917.00
2022-10-25T05:58:19.193Z,100927.22
2022-10-25T06:01:23.356Z,100925.00
2022-10-25T06:04:26.242Z,100926.38
2022-10-25T06:07:28.958Z,100931.06
2022-10-25T06:10:33.133Z,100935.50
2022-10-25T06:13:36.694Z,100941.00
2022-10-25T06:16:39.888Z,100941.81
2022-10-25T06:19:42.531Z,100942.94
2022-10-25T06:22:45.484Z,100960.34
2022-10-25T06:25:49.782Z,100954.78
2022-10-25T06:28:54.688Z,100960.88
2022-10-25T06:31:57.486Z,100964.16
2022-10-25T06:35:00.304Z,100966.94
2022-10-25T06:38:03.094Z,100970.53
2022-10-25T06:41:08.713Z,100972.16
2022-10-25T06:44:11.500Z,100977.44
2022-10-25T06:47:18.164Z,100978.53
2022-10-25T06:50:21.095Z,100982.09
2022-10-25T06:53:23.762Z,100987.34
2022-10-25T06:56:29.135Z,100993.72
2022-10-25T06:59:31.772Z,100998.94
2022-10-25T07:02:34.468Z,101008.34
2022-10-25T07:05:37.343Z,101007.22
2022-10-25T07:08:42.600Z,100998.94
2022-10-25T07:11:46.676Z,101008.34
2022-10-25T07:14:49.341Z,101008.88
2022-10-25T07:17:51.946Z,101014.69
2022-10-25T07:20:59.976Z,101020.19
2022-10-25T07:24:02.939Z,101022.16
2022-10-25T07:27:07.113Z,101028.50
2022-10-25T07:30:10.914Z,101034.84
2022-10-25T07:33:14.408Z,101033.47
2022-10-25T07:36:17.450Z,101029.63
2022-10-25T07:39:20.201Z,101031.53
2022-10-25T07:42:24.434Z,101033.47
2022-10-25T07:45:30.390Z,101034.31
2022-10-25T07:48:34.801Z,101030.97
2022-10-25T07:51:37.603Z,101033.47
2022-10-25T07:54:40.802Z,101036.78
2022-10-25T07:57:45.117Z,101038.44
2022-10-25T08:00:48.439Z,101042.59
2022-10-25T08:03:51.476Z,101043.94
2022-10-25T08:06:54.292Z,101041.75
2022-10-25T08:09:56.983Z,101043.41
2022-10-25T08:13:01.299Z,101043.97
2022-10-25T08:16:04.082Z,101042.00
2022-10-25T08:19:06.986Z,101047.81
2022-10-25T08:22:10.236Z,101048.38
2022-10-25T08:25:13.056Z,101049.22
2022-10-25T08:28:17.043Z,101043.94
2022-10-25T08:31:19.949Z,101052.50
2022-10-25T08:34:22.769Z,101044.19
2022-10-25T08:37:25.363Z,101053.88
2022-10-25T08:40:38.289Z,101056.63
2022-10-25T08:44:17.281Z,101051.63
2022-10-25T08:47:25.177Z,101056.88
2022-10-25T08:50:36.746Z,101058.84
2022-10-25T08:53:43.740Z,101063.53
2022-10-25T08:57:03.454Z,101064.06
2022-10-25T09:00:17.588Z,101065.94
2022-10-25T09:03:25.202Z,101064.28
2022-10-25T09:06:37.675Z,101061.72
2022-10-25T09:09:50.487Z,101063.06
2022-10-25T09:13:01.382Z,101081.03
2022-10-25T09:16:14.010Z,101084.38
2022-10-25T09:19:20.619Z,101070.84
2022-10-25T09:22:28.166Z,101080.75
2022-10-25T09:25:35.362Z,101082.69
2022-10-25T09:28:51.805Z,101081.69
2022-10-25T09:31:59.899Z,101080.19
2022-10-25T09:35:04.612Z,101087.44
2022-10-25T09:38:13.329Z,101088.25
2022-10-25T09:41:21.996Z,101088.34
2022-10-25T09:44:37.400Z,101085.06
2022-10-25T09:47:47.377Z,101089.44
2022-10-25T09:50:54.639Z,101084.91
2022-10-25T09:53:58.851Z,101099.47
2022-10-25T09:57:01.604Z,101091.63
2022-10-25T10:00:05.281Z,101093.50
2022-10-25T10:03:13.194Z,101103.69
2022-10-25T10:06:20.294Z,101104.69
2022-10-25T10:09:24.210Z,101104.00
2022-10-25T10:12:32.030Z,101104.22
2022-10-25T10:15:39.269Z,101106.69
2022-10-25T10:18:44.501Z,101110.34
2022-10-25T10:21:49.974Z,101107.69
2022-10-25T10:25:01.814Z,101104.56
2022-10-25T10:28:04.545Z,101108.22
2022-10-25T10:31:08.943Z,101117.03
2022-10-25T10:34:27.174Z,101122.44
2022-10-25T10:37:32.057Z,101107.41
2022-10-25T10:40:34.628Z,101124.16
2022-10-25T10:43:37.347Z,101120.44
2022-10-25T10:46:45.257Z,101119.03
2022-10-25T10:49:49.620Z,101116.13
2022-10-25T10:52:59.791Z,101115.94
2022-10-25T10:56:05.661Z,101118.13
2022-10-25T10:59:27.412Z,101113.53
2022-10-25T11:02:39.011Z,101127.50
2022-10-25T11:05:54.302Z,101123.41
2022-10-25T11:09:17.149Z,101125.06
2022-10-25T11:12:20.187Z,101118.97
2022-10-25T11:15:22.931Z,101127.72
2022-10-25T11:18:33.602Z,101122.59
2022-10-25T11:21:55.141Z,101126.69
2022-10-25T11:28:42.931Z,101127.75
2022-10-25T11:31:57.950Z,101126.84
2022-10-25T11:35:11.307Z,101137.94
2022-10-25T11:38:24.633Z,101127.25
2022-10-25T11:41:37.892Z,101133.72
2022-10-25T11:45:02.103Z,101139.13
2022-10-25T11:48:26.806Z,101135.97
2022-10-25T11:51:40.321Z,101138.47
2022-10-25T11:54:50.341Z,101142.69
2022-10-25T11:58:05.688Z,101130.31
2022-10-25T12:01:25.100Z,101138.88
2022-10-25T12:04:40.145Z,101140.34
2022-10-25T12:07:48.793Z,101142.00
2022-10-25T12:10:57.456Z,101147.84
2022-10-25T12:14:02.620Z,101161.84
2022-10-25T12:17:09.576Z,101156.28
2022-10-25T12:20:21.245Z,101154.13
2022-10-25T12:23:27.352Z,101151.38
2022-10-25T12:26:34.655Z,101156.16
2022-10-25T12:29:42.179Z,101156.56
2022-10-25T12:32:52.057Z,101155.22
2022-10-25T12:36:01.563Z,101142.19
2022-10-25T12:39:12.574Z,101149.69
2022-10-25T12:42:20.887Z,101152.09
2022-10-25T12:45:55.965Z,101159.19
2022-10-25T12:49:12.336Z,101153.53
2022-10-25T12:52:29.395Z,101161.34
2022-10-25T12:55:43.339Z,101166.41
2022-10-25T12:59:00.916Z,101169.47
2022-10-25T13:02:19.728Z,101154.63
2022-10-25T13:05:42.274Z,101165.38
2022-10-25T13:08:45.800Z,101170.44
2022-10-25T13:11:52.847Z,101166.06
2022-10-25T13:15:00.850Z,101180.75
2022-10-25T13:18:05.719Z,101187.94
2022-10-25T13:21:10.377Z,101179.78
2022-10-25T13:24:33.119Z,101182.38
2022-10-25T13:27:37.081Z,101191.28
2022-10-25T13:30:41.404Z,101195.72
2022-10-25T13:33:44.315Z,101184.75
2022-10-25T13:36:48.345Z,101183.50
2022-10-25T13:39:55.225Z,101195.00
2022-10-25T13:43:04.749Z,101201.31
2022-10-25T13:46:12.706Z,101202.31
2022-10-25T13:49:36.913Z,101202.25
2022-10-25T13:52:46.648Z,101190.56
2022-10-25T13:56:04.119Z,101195.75
2022-10-25T13:59:36.595Z,101205.63
2022-10-25T14:03:04.175Z,101212.63
2022-10-25T14:06:28.657Z,101210.56
2022-10-25T14:09:36.292Z,101213.34
2022-10-25T14:12:44.511Z,101219.22
2022-10-25T14:15:55.771Z,101212.06
2022-10-25T14:19:04.394Z,101217.00
2022-10-25T14:22:15.904Z,101218.97
2022-10-25T14:25:23.050Z,101215.66
2022-10-25T14:28:27.799Z,101219.53
2022-10-25T14:31:30.406Z,101219.50
2022-10-25T14:34:34.526Z,101218.66
2022-10-25T14:37:43.624Z,101213.16
2022-10-25T14:40:51.931Z,101214.31
2022-10-25T14:43:55.299Z,101218.75
2022-10-25T14:47:00.364Z,101215.44
2022-10-25T14:53:16.641Z,101215.22
2022-10-25T14:56:28.141Z,101224.59
2022-10-25T14:59:40.259Z,101221.59
2022-10-25T15:02:45.310Z,101232.09
2022-10-25T15:05:52.293Z,101227.63
2022-10-25T15:09:23.030Z,101226.03
2022-10-25T15:12:24.761Z,101218.56
2022-10-25T15:15:34.889Z,101217.44
2022-10-25T15:18:39.096Z,101219.13
2022-10-25T15:21:44.596Z,101221.91
2022-10-25T15:24:48.957Z,101223.25
2022-10-25T15:27:54.726Z,101225.22
2022-10-25T15:31:04.758Z,101217.75
2022-10-25T15:34:07.775Z,101224.13
2022-10-25T15:37:13.363Z,101222.72
2022-10-25T15:40:17.111Z,101220.50
2022-10-25T15:43:19.758Z,101222.16
2022-10-25T15:46:31.308Z,101228.25
2022-10-25T15:49:34.065Z,101225.19
2022-10-25T15:52:37.991Z,101231.84
2022-10-25T15:55:40.635Z,101235.72
2022-10-25T15:58:43.262Z,101234.03
2022-10-25T16:01:49.320Z,101234.63
2022-10-25T16:04:52.218Z,101231.28
2022-10-25T16:07:56.628Z,101238.19
2022-10-25T16:10:59.694Z,101243.16
2022-10-25T16:14:03.845Z,101239.56
2022-10-25T16:17:06.452Z,101252.56
2022-10-25T16:20:18.256Z,101249.53
2022-10-25T16:23:23.854Z,101251.16
2022-10-25T16:26:30.830Z,101255.84
2022-10-25T16:29:33.477Z,101257.22
2022-10-25T16:32:36.063Z,101254.72
2022-10-25T16:35:38.755Z,101259.97
2022-10-25T16:38:42.672Z,101258.03
2022-10-25T16:41:46.759Z,101256.66
2022-10-25T16:44:49.338Z,101262.44
2022-10-25T16:47:51.881Z,101264.63
2022-10-25T16:50:54.524Z,101271.22
2022-10-25T16:53:59.277Z,101270.09
2022-10-25T16:57:01.822Z,101278.34
2022-10-25T17:00:05.378Z,101280.28
2022-10-25T17:03:07.910Z,101291.63
2022-10-25T17:06:28.732Z,101284.72
2022-10-25T17:09:34.802Z,101301.25
2022-10-25T17:12:43.589Z,101299.00
2022-10-25T17:15:46.471Z,101299.56
2022-10-25T17:18:49.106Z,101292.63
2022-10-25T17:21:51.740Z,101299.22
2022-10-25T17:24:55.898Z,101290.94
2022-10-25T17:27:58.452Z,101298.41
2022-10-25T17:31:01.962Z,101303.28
2022-10-25T17:34:05.337Z,101301.03
2022-10-25T17:37:07.919Z,101301.91
2022-10-25T17:40:14.781Z,101314.59
2022-10-25T17:43:17.325Z,101316.00
2022-10-25T17:46:23.112Z,101315.91
2022-10-25T17:49:25.798Z,101318.38
2022-10-25T17:52:28.441Z,101319.19
2022-10-25T17:55:33.497Z,101318.28
2022-10-25T17:58:36.411Z,101325.47
2022-10-25T18:01:40.652Z,101321.63
2022-10-25T18:05:01.116Z,101323.06
2022-10-25T18:08:07.609Z,101322.41
2022-10-25T18:11:12.941Z,101316.34
2022-10-25T18:14:15.625Z,101327.63
2022-10-25T18:17:18.367Z,101330.66
2022-10-25T18:20:22.331Z,101341.13
2022-10-25T18:23:24.907Z,101343.03
2022-10-25T18:26:29.539Z,101344.00
2022-10-25T18:29:34.090Z,101343.75
2022-10-25T18:32:36.760Z,101339.06
2022-10-25T18:38:47.310Z,101352.97
2022-10-25T18:41:54.539Z,101343.50
2022-10-25T18:44:57.119Z,101346.69
2022-10-25T18:47:59.820Z,101347.38
2022-10-25T18:51:07.043Z,101341.81
2022-10-25T18:54:11.476Z,101340.31
2022-10-25T18:57:15.483Z,101341.94
2022-10-25T19:00:19.057Z,101345.69
2022-10-25T19:03:21.620Z,101350.84
2022-10-25T19:06:24.576Z,101348.06
2022-10-25T19:09:27.129Z,101351.53
2022-10-25T19:12:31.021Z,101346.88
2022-10-25T19:15:33.786Z,101343.22
2022-10-25T19:18:38.742Z,101342.38
2022-10-25T19:21:43.058Z,101340.16
2022-10-25T19:24:45.663Z,101346.16
2022-10-25T19:27:49.976Z,101340.56
2022-10-25T19:30:52.794Z,101334.16
2022-10-25T19:33:58.609Z,101344.34
2022-10-25T19:37:04.319Z,101347.25
2022-10-25T19:40:09.191Z,101344.16
2022-10-25T19:43:14.556Z,101336.44
2022-10-25T19:46:18.300Z,101346.75
2022-10-25T19:49:21.084Z,101344.75
2022-10-25T19:52:23.639Z,101340.00
2022-10-25T19:55:26.517Z,101344.56
2022-10-25T19:58:30.720Z,101353.56
2022-10-25T20:01:33.949Z,101355.25
2022-10-25T20:04:36.793Z,101356.06
2022-10-25T20:07:39.771Z,101356.91
2022-10-25T20:10:42.331Z,101357.16
2022-10-25T20:13:46.626Z,101362.78
2022-10-25T20:16:49.369Z,101361.53
2022-10-25T20:19:52.109Z,101362.28
2022-10-25T20:22:54.789Z,101373.16
2022-10-25T20:25:57.396Z,101375.53
2022-10-25T20:29:04.921Z,101374.94
2022-10-25T20:32:07.667Z,101371.88
2022-10-25T20:35:10.235Z,101380.34
2022-10-25T20:38:13.553Z,101385.25
2022-10-25T20:41:18.681Z,101395.88
2022-10-25T20:44:22.744Z,101394.47
2022-10-25T20:47:25.521Z,101397.44
2022-10-25T20:50:29.489Z,101397.59
2022-10-25T20:53:32.360Z,101400.00
2022-10-25T20:56:36.987Z,101399.16
2022-10-25T20:59:41.335Z,101395.94
2022-10-25T21:02:44.117Z,101398.91
2022-10-25T21:05:46.815Z,101398.56
2022-10-25T21:08:49.508Z,101389.41
2022-10-25T21:11:52.063Z,101404.47
2022-10-25T21:14:56.326Z,101408.63
2022-10-25T21:17:59.151Z,101403.59
2022-10-25T21:21:03.121Z,101406.59
2022-10-25T21:24:06.009Z,101413.31
2022-10-25T21:27:12.817Z,101419.03
2022-10-25T21:30:17.359Z,101418.19
2022-10-25T21:33:20.016Z,101410.69
2022-10-25T21:36:22.711Z,101411.16
2022-10-25T21:39:25.478Z,101405.09
2022-10-25T21:42:31.757Z,101414.25
2022-10-25T21:45:35.680Z,101408.78
2022-10-25T21:48:39.299Z,101416.66
2022-10-25T21:51:42.336Z,101405.34
2022-10-25T21:54:45.281Z,101407.50
2022-10-25T21:57:50.601Z,101421.81
2022-10-25T22:00:59.433Z,101418.56
2022-10-25T22:04:02.263Z,101425.13
2022-10-25T22:07:04.874Z,101419.56
2022-10-25T22:10:08.056Z,101424.91
2022-10-25T22:13:11.010Z,101418.81
2022-10-25T22:16:17.877Z,101422.16
2022-10-25T22:19:46.838Z,101426.69
2022-10-25T22:22:49.753Z,101415.72
2022-10-25T22:25:52.722Z,101422.63
2022-10-25T22:28:57.251Z,101426.22
2022-10-25T22:32:01.356Z,101421.31
2022-10-25T22:35:03.912Z,101421.31
2022-10-25T22:38:06.713Z,101431.47
2022-10-25T22:41:11.735Z,101431.22
2022-10-25T22:44:14.482Z,101428.47
2022-10-25T22:47:18.547Z,101435.28
2022-10-25T22:50:21.125Z,101428.84
2022-10-25T22:53:23.949Z,101428.72
2022-10-25T22:56:27.844Z,101437.56
2022-10-25T22:59:30.569Z,101432.06
2022-10-25T23:02:34.499Z,101427.63
2022-10-25T23:05:37.188Z,101433.38
2022-10-25T23:08:39.967Z,101431.94
2022-10-25T23:11:43.062Z,101433.25
2022-10-25T23:14:45.732Z,101428.00
2022-10-25T23:17:49.661Z,101435.16
2022-10-25T23:20:53.979Z,101428.25
2022-10-25T23:23:57.667Z,101439.22
2022-10-25T23:27:00.395Z,101433.72
2022-10-25T23:30:03.344Z,101437.53
2022-10-25T23:33:08.008Z,101434.56
2022-10-25T23:36:13.691Z,101430.41
2022-10-25T23:39:16.261Z,101436.09
2022-10-25T23:42:18.931Z,101430.00
2022-10-25T23:45:21.579Z,101429.19
2022-10-25T23:48:25.877Z,101426.69
2022-10-25T23:51:28.553Z,101428.34
2022-10-25T23:54:31.123Z,101427.16
2022-10-25T23:57:33.909Z,101425.97
